sensor_id;sensor_type;location;lat;lon;timestamp;pressure;altitude;pressure_sealevel;temperature
61595;BMP280;47397;48.194;11.632;2024-01-16T00:00:07;95186.28;;;-1.79
61595;BMP280;47397;48.194;11.632;2024-01-16T00:01:07;95178.75;;;-1.83
61595;BMP280;47397;48.194;11.632;2024-01-16T00:02:08;95167.97;;;-1.82
61595;BMP280;47397;48.194;11.632;2024-01-16T00:03:08;95185.47;;;-1.78
61595;BMP280;47397;48.194;11.632;2024-01-16T00:04:08;95184.66;;;-1.75
61595;BMP280;47397;48.194;11.632;2024-01-16T00:05:10;95184.72;;;-1.69
61595;BMP280;47397;48.194;11.632;2024-01-16T00:06:10;95180.63;;;-1.66
61595;BMP280;47397;48.194;11.632;2024-01-16T00:07:11;95180.63;;;-1.64
61595;BMP280;47397;48.194;11.632;2024-01-16T00:08:12;95188.91;;;-1.68
61595;BMP280;47397;48.194;11.632;2024-01-16T00:09:13;95185.59;;;-1.67
61595;BMP280;47397;48.194;11.632;2024-01-16T00:10:13;95193.06;;;-1.67
61595;BMP280;47397;48.194;11.632;2024-01-16T00:11:13;95195.47;;;-1.73
61595;BMP280;47397;48.194;11.632;2024-01-16T00:12:14;95189.59;;;-1.80
61595;BMP280;47397;48.194;11.632;2024-01-16T00:13:14;95197.13;;;-1.74
61595;BMP280;47397;48.194;11.632;2024-01-16T00:14:14;95193.84;;;-1.70
61595;BMP280;47397;48.194;11.632;2024-01-16T00:15:15;95202.97;;;-1.72
61595;BMP280;47397;48.194;11.632;2024-01-16T00:16:15;95202.09;;;-1.77
61595;BMP280;47397;48.194;11.632;2024-01-16T00:17:16;95190.41;;;-1.81
61595;BMP280;47397;48.194;11.632;2024-01-16T00:18:16;95202.13;;;-1.72
61595;BMP280;47397;48.194;11.632;2024-01-16T00:19:16;95203.78;;;-1.74
61595;BMP280;47397;48.194;11.632;2024-01-16T00:20:17;95198.84;;;-1.70
61595;BMP280;47397;48.194;11.632;2024-01-16T00:21:17;95203.03;;;-1.67
61595;BMP280;47397;48.194;11.632;2024-01-16T00:22:17;95199.66;;;-1.71
61595;BMP280;47397;48.194;11.632;2024-01-16T00:23:19;95203.81;;;-1.71
61595;BMP280;47397;48.194;11.632;2024-01-16T00:24:19;95202.97;;;-1.72
61595;BMP280;47397;48.194;11.632;2024-01-16T00:25:19;95207.06;;;-1.77
61595;BMP280;47397;48.194;11.632;2024-01-16T00:26:20;95203.69;;;-1.80
61595;BMP280;47397;48.194;11.632;2024-01-16T00:27:21;95202.81;;;-1.85
61595;BMP280;47397;48.194;11.632;2024-01-16T00:28:21;95205.38;;;-1.79
61595;BMP280;47397;48.194;11.632;2024-01-16T00:29:21;95205.38;;;-1.79
61595;BMP280;47397;48.194;11.632;2024-01-16T00:30:22;95202.03;;;-1.81
61595;BMP280;47397;48.194;11.632;2024-01-16T00:31:22;95202.84;;;-1.82
61595;BMP280;47397;48.194;11.632;2024-01-16T00:32:22;95196.94;;;-1.88
61595;BMP280;47397;48.194;11.632;2024-01-16T00:33:23;95211.00;;;-1.91
61595;BMP280;47397;48.194;11.632;2024-01-16T00:34:23;95211.88;;;-1.88
61595;BMP280;47397;48.194;11.632;2024-01-16T00:35:23;95208.66;;;-1.83
61595;BMP280;47397;48.194;11.632;2024-01-16T00:36:24;95215.09;;;-1.96
61595;BMP280;47397;48.194;11.632;2024-01-16T00:37:24;95212.66;;;-1.92
61595;BMP280;47397;48.194;11.632;2024-01-16T00:38:26;95211.78;;;-1.95
61595;BMP280;47397;48.194;11.632;2024-01-16T00:39:26;95216.00;;;-1.91
61595;BMP280;47397;48.194;11.632;2024-01-16T00:40:26;95223.41;;;-1.96
61595;BMP280;47397;48.194;11.632;2024-01-16T00:41:26;95224.22;;;-1.97
61595;BMP280;47397;48.194;11.632;2024-01-16T00:42:27;95223.44;;;-1.93
61595;BMP280;47397;48.194;11.632;2024-01-16T00:43:27;95228.31;;;-2.02
61595;BMP280;47397;48.194;11.632;2024-01-16T00:44:27;95232.44;;;-2.04
61595;BMP280;47397;48.194;11.632;2024-01-16T00:45:28;95233.31;;;-1.99
61595;BMP280;47397;48.194;11.632;2024-01-16T00:46:28;95230.84;;;-1.97
61595;BMP280;47397;48.194;11.632;2024-01-16T00:47:28;95233.38;;;-1.96
61595;BMP280;47397;48.194;11.632;2024-01-16T00:48:28;95233.44;;;-1.90
61595;BMP280;47397;48.194;11.632;2024-01-16T00:49:29;95232.53;;;-1.96
61595;BMP280;47397;48.194;11.632;2024-01-16T00:50:29;95241.66;;;-1.95
61595;BMP280;47397;48.194;11.632;2024-01-16T00:51:29;95234.91;;;-2.05
61595;BMP280;47397;48.194;11.632;2024-01-16T00:52:30;95235.94;;;-1.90
61595;BMP280;47397;48.194;11.632;2024-01-16T00:53:31;95235.94;;;-1.90
61595;BMP280;47397;48.194;11.632;2024-01-16T00:54:32;95244.25;;;-1.88
61595;BMP280;47397;48.194;11.632;2024-01-16T00:55:32;95242.69;;;-1.84
61595;BMP280;47397;48.194;11.632;2024-01-16T00:56:32;95240.13;;;-1.87
61595;BMP280;47397;48.194;11.632;2024-01-16T00:57:33;95244.28;;;-1.86
61595;BMP280;47397;48.194;11.632;2024-01-16T00:58:33;95241.75;;;-1.89
61595;BMP280;47397;48.194;11.632;2024-01-16T00:59:33;95244.25;;;-1.88
61595;BMP280;47397;48.194;11.632;2024-01-16T01:00:33;95244.28;;;-1.86
61595;BMP280;47397;48.194;11.632;2024-01-16T01:01:37;95250.91;;;-1.86
61595;BMP280;47397;48.194;11.632;2024-01-16T01:02:37;95245.94;;;-1.86
61595;BMP280;47397;48.194;11.632;2024-01-16T01:03:37;95253.47;;;-1.85
61595;BMP280;47397;48.194;11.632;2024-01-16T01:04:37;95251.69;;;-1.92
61595;BMP280;47397;48.194;11.632;2024-01-16T01:05:38;95256.72;;;-1.86
61595;BMP280;47397;48.194;11.632;2024-01-16T01:06:38;95257.50;;;-1.90
61595;BMP280;47397;48.194;11.632;2024-01-16T01:07:38;95256.69;;;-1.89
61595;BMP280;47397;48.194;11.632;2024-01-16T01:08:40;95258.38;;;-1.88
61595;BMP280;47397;48.194;11.632;2024-01-16T01:09:40;95259.97;;;-1.92
61595;BMP280;47397;48.194;11.632;2024-01-16T01:10:41;95263.44;;;-1.83
61595;BMP280;47397;48.194;11.632;2024-01-16T01:11:41;95259.13;;;-1.92
61595;BMP280;47397;48.194;11.632;2024-01-16T01:12:41;95262.44;;;-1.95
61595;BMP280;47397;48.194;11.632;2024-01-16T01:13:42;95265.78;;;-1.93
61595;BMP280;47397;48.194;11.632;2024-01-16T01:14:42;95268.22;;;-1.97
61595;BMP280;47397;48.194;11.632;2024-01-16T01:15:42;95257.34;;;-2.04
61595;BMP280;47397;48.194;11.632;2024-01-16T01:16:42;95254.88;;;-2.01
61595;BMP280;47397;48.194;11.632;2024-01-16T01:17:43;95263.13;;;-2.05
61595;BMP280;47397;48.194;11.632;2024-01-16T01:18:43;95249.75;;;-2.11
61595;BMP280;47397;48.194;11.632;2024-01-16T01:19:43;95253.94;;;-2.09
61595;BMP280;47397;48.194;11.632;2024-01-16T01:20:44;95263.22;;;-1.99
61595;BMP280;47397;48.194;11.632;2024-01-16T01:21:44;95261.38;;;-2.10
61595;BMP280;47397;48.194;11.632;2024-01-16T01:22:45;95262.19;;;-2.13
61595;BMP280;47397;48.194;11.632;2024-01-16T01:23:46;95269.75;;;-2.07
61595;BMP280;47397;48.194;11.632;2024-01-16T01:24:47;95258.16;;;-2.03
61595;BMP280;47397;48.194;11.632;2024-01-16T01:25:47;95257.25;;;-2.10
61595;BMP280;47397;48.194;11.632;2024-01-16T01:26:47;95264.59;;;-2.17
61595;BMP280;47397;48.194;11.632;2024-01-16T01:27:48;95264.31;;;-2.36
61595;BMP280;47397;48.194;11.632;2024-01-16T01:28:48;95278.66;;;-2.21
61595;BMP280;47397;48.194;11.632;2024-01-16T01:29:48;95267.91;;;-2.20
61595;BMP280;47397;48.194;11.632;2024-01-16T01:30:49;95275.38;;;-2.18
61595;BMP280;47397;48.194;11.632;2024-01-16T01:31:49;95272.91;;;-2.17
61595;BMP280;47397;48.194;11.632;2024-01-16T01:32:49;95276.16;;;-2.23
61595;BMP280;47397;48.194;11.632;2024-01-16T01:33:50;95283.47;;;-2.30
61595;BMP280;47397;48.194;11.632;2024-01-16T01:34:50;95284.31;;;-2.30
61595;BMP280;47397;48.194;11.632;2024-01-16T01:35:50;95283.56;;;-2.24
61595;BMP280;47397;48.194;11.632;2024-01-16T01:36:50;95285.97;;;-2.30
61595;BMP280;47397;48.194;11.632;2024-01-16T01:37:51;95285.94;;;-2.32
61595;BMP280;47397;48.194;11.632;2024-01-16T01:38:52;95287.63;;;-2.31
61595;BMP280;47397;48.194;11.632;2024-01-16T01:39:53;95287.78;;;-2.22
61595;BMP280;47397;48.194;11.632;2024-01-16T01:40:53;95295.31;;;-2.17
61595;BMP280;47397;48.194;11.632;2024-01-16T01:41:54;95294.34;;;-2.24
61595;BMP280;47397;48.194;11.632;2024-01-16T01:42:54;95287.00;;;-2.17
61595;BMP280;47397;48.194;11.632;2024-01-16T01:43:55;95292.00;;;-2.16
61595;BMP280;47397;48.194;11.632;2024-01-16T01:44:55;95287.00;;;-2.17
61595;BMP280;47397;48.194;11.632;2024-01-16T01:46:09;95287.94;;;-2.11
61595;BMP280;47397;48.194;11.632;2024-01-16T01:47:09;95293.84;;;-2.03
61595;BMP280;47397;48.194;11.632;2024-01-16T01:48:10;95291.38;;;-2.03
61595;BMP280;47397;48.194;11.632;2024-01-16T01:49:12;95297.88;;;-2.12
61595;BMP280;47397;48.194;11.632;2024-01-16T01:50:13;95299.47;;;-2.17
61595;BMP280;47397;48.194;11.632;2024-01-16T01:51:17;95297.00;;;-2.16
61595;BMP280;47397;48.194;11.632;2024-01-16T01:52:18;95296.22;;;-2.12
61595;BMP280;47397;48.194;11.632;2024-01-16T01:53:18;95294.63;;;-2.08
61595;BMP280;47397;48.194;11.632;2024-01-16T01:54:20;95292.03;;;-2.14
61595;BMP280;47397;48.194;11.632;2024-01-16T01:55:21;95290.47;;;-2.08
61595;BMP280;47397;48.194;11.632;2024-01-16T01:56:21;95293.72;;;-2.12
61595;BMP280;47397;48.194;11.632;2024-01-16T01:57:22;95296.31;;;-2.06
61595;BMP280;47397;48.194;11.632;2024-01-16T01:58:22;95293.84;;;-2.04
61595;BMP280;47397;48.194;11.632;2024-01-16T01:59:23;95294.53;;;-2.13
61595;BMP280;47397;48.194;11.632;2024-01-16T02:00:24;95302.16;;;-2.04
61595;BMP280;47397;48.194;11.632;2024-01-16T02:01:25;95303.78;;;-2.06
61595;BMP280;47397;48.194;11.632;2024-01-16T02:02:26;95304.66;;;-2.02
61595;BMP280;47397;48.194;11.632;2024-01-16T02:03:27;95307.25;;;-1.95
61595;BMP280;47397;48.194;11.632;2024-01-16T02:04:30;95307.97;;;-2.02
61595;BMP280;47397;48.194;11.632;2024-01-16T02:05:31;95309.59;;;-2.05
61595;BMP280;47397;48.194;11.632;2024-01-16T02:06:32;95308.78;;;-2.04
61595;BMP280;47397;48.194;11.632;2024-01-16T02:07:33;95306.34;;;-2.00
61595;BMP280;47397;48.194;11.632;2024-01-16T02:08:35;95304.72;;;-1.98
61595;BMP280;47397;48.194;11.632;2024-01-16T02:09:37;95308.72;;;-2.07
61595;BMP280;47397;48.194;11.632;2024-01-16T02:10:38;95312.84;;;-2.09
61595;BMP280;47397;48.194;11.632;2024-01-16T02:11:40;95315.34;;;-2.09
61595;BMP280;47397;48.194;11.632;2024-01-16T02:12:40;95306.19;;;-2.10
61595;BMP280;47397;48.194;11.632;2024-01-16T02:13:40;95307.13;;;-2.04
61595;BMP280;47397;48.194;11.632;2024-01-16T02:14:41;95305.53;;;-1.99
61595;BMP280;47397;48.194;11.632;2024-01-16T02:15:41;95317.84;;;-2.08
61595;BMP280;47397;48.194;11.632;2024-01-16T02:16:42;95317.91;;;-2.03
61595;BMP280;47397;48.194;11.632;2024-01-16T02:17:42;95314.66;;;-1.99
61595;BMP280;47397;48.194;11.632;2024-01-16T02:18:42;95314.63;;;-2.01
61595;BMP280;47397;48.194;11.632;2024-01-16T02:19:43;95314.63;;;-2.01
61595;BMP280;47397;48.194;11.632;2024-01-16T02:20:43;95318.78;;;-2.01
61595;BMP280;47397;48.194;11.632;2024-01-16T02:21:46;95319.59;;;-2.02
61595;BMP280;47397;48.194;11.632;2024-01-16T02:22:48;95314.56;;;-2.05
61595;BMP280;47397;48.194;11.632;2024-01-16T02:23:53;95308.00;;;-2.00
61595;BMP280;47397;48.194;11.632;2024-01-16T02:24:53;95315.38;;;-2.06
61595;BMP280;47397;48.194;11.632;2024-01-16T02:25:54;95315.41;;;-2.05
61595;BMP280;47397;48.194;11.632;2024-01-16T02:26:55;95312.16;;;-2.01
61595;BMP280;47397;48.194;11.632;2024-01-16T02:27:56;95310.34;;;-2.11
61595;BMP280;47397;48.194;11.632;2024-01-16T02:28:56;95307.13;;;-2.04
61595;BMP280;47397;48.194;11.632;2024-01-16T02:29:56;95310.44;;;-2.05
61595;BMP280;47397;48.194;11.632;2024-01-16T02:30:57;95310.34;;;-2.11
61595;BMP280;47397;48.194;11.632;2024-01-16T02:31:57;95308.69;;;-2.10
61595;BMP280;47397;48.194;11.632;2024-01-16T02:32:57;95314.53;;;-2.07
61595;BMP280;47397;48.194;11.632;2024-01-16T02:33:58;95313.72;;;-2.06
61595;BMP280;47397;48.194;11.632;2024-01-16T02:34:58;95319.53;;;-2.07
61595;BMP280;47397;48.194;11.632;2024-01-16T02:35:58;95319.47;;;-2.10
61595;BMP280;47397;48.194;11.632;2024-01-16T02:36:59;95315.28;;;-2.14
61595;BMP280;47397;48.194;11.632;2024-01-16T02:37:59;95317.69;;;-2.18
61595;BMP280;47397;48.194;11.632;2024-01-16T02:39:01;95324.34;;;-2.17
61595;BMP280;47397;48.194;11.632;2024-01-16T02:40:01;95322.66;;;-2.20
61595;BMP280;47397;48.194;11.632;2024-01-16T02:41:01;95320.97;;;-2.21
61595;BMP280;47397;48.194;11.632;2024-01-16T02:42:02;95325.19;;;-2.17
61595;BMP280;47397;48.194;11.632;2024-01-16T02:43:02;95324.31;;;-2.21
61595;BMP280;47397;48.194;11.632;2024-01-16T02:44:03;95329.16;;;-2.27
61595;BMP280;47397;48.194;11.632;2024-01-16T02:45:04;95328.38;;;-2.24
61595;BMP280;47397;48.194;11.632;2024-01-16T02:46:04;95325.13;;;-2.22
61595;BMP280;47397;48.194;11.632;2024-01-16T02:47:05;95322.44;;;-2.32
61595;BMP280;47397;48.194;11.632;2024-01-16T02:48:05;95324.97;;;-2.29
61595;BMP280;47397;48.194;11.632;2024-01-16T02:49:06;95325.72;;;-2.33
61595;BMP280;47397;48.194;11.632;2024-01-16T02:50:07;95325.72;;;-2.35
61595;BMP280;47397;48.194;11.632;2024-01-16T02:51:07;95329.94;;;-2.29
61595;BMP280;47397;48.194;11.632;2024-01-16T02:52:08;95325.72;;;-2.33
61595;BMP280;47397;48.194;11.632;2024-01-16T02:53:09;95323.06;;;-2.44
61595;BMP280;47397;48.194;11.632;2024-01-16T02:54:11;95319.03;;;-2.37
61595;BMP280;47397;48.194;11.632;2024-01-16T02:55:11;95329.81;;;-2.38
61595;BMP280;47397;48.194;11.632;2024-01-16T02:56:12;95319.00;;;-2.40
61595;BMP280;47397;48.194;11.632;2024-01-16T02:57:12;95325.53;;;-2.45
61595;BMP280;47397;48.194;11.632;2024-01-16T02:58:12;95315.59;;;-2.45
61595;BMP280;47397;48.194;11.632;2024-01-16T02:59:13;95314.72;;;-2.47
61595;BMP280;47397;48.194;11.632;2024-01-16T03:00:14;95318.78;;;-2.53
61595;BMP280;47397;48.194;11.632;2024-01-16T03:01:14;95320.53;;;-2.48
61595;BMP280;47397;48.194;11.632;2024-01-16T03:02:15;95316.38;;;-2.48
61595;BMP280;47397;48.194;11.632;2024-01-16T03:03:15;95319.03;;;-2.37
61595;BMP280;47397;48.194;11.632;2024-01-16T03:04:15;95313.19;;;-2.39
61595;BMP280;47397;48.194;11.632;2024-01-16T03:05:16;95318.88;;;-2.48
61595;BMP280;47397;48.194;11.632;2024-01-16T03:06:22;95324.66;;;-2.49
61595;BMP280;47397;48.194;11.632;2024-01-16T03:07:23;95328.88;;;-2.45
61595;BMP280;47397;48.194;11.632;2024-01-16T03:08:23;95323.78;;;-2.53
61595;BMP280;47397;48.194;11.632;2024-01-16T03:09:25;95332.19;;;-2.44
61595;BMP280;47397;48.194;11.632;2024-01-16T03:10:25;95328.84;;;-2.46
61595;BMP280;47397;48.194;11.632;2024-01-16T03:11:25;95329.66;;;-2.47
61595;BMP280;47397;48.194;11.632;2024-01-16T03:12:25;95329.59;;;-2.50
61595;BMP280;47397;48.194;11.632;2024-01-16T03:13:26;95330.44;;;-2.50
61595;BMP280;47397;48.194;11.632;2024-01-16T03:14:26;95332.16;;;-2.46
61595;BMP280;47397;48.194;11.632;2024-01-16T03:15:27;95333.81;;;-2.46
61595;BMP280;47397;48.194;11.632;2024-01-16T03:16:27;95331.28;;;-2.49
61595;BMP280;47397;48.194;11.632;2024-01-16T03:17:27;95335.28;;;-2.59
61595;BMP280;47397;48.194;11.632;2024-01-16T03:18:28;95332.97;;;-2.47
61595;BMP280;47397;48.194;11.632;2024-01-16T03:19:28;95337.00;;;-2.55
61595;BMP280;47397;48.194;11.632;2024-01-16T03:20:28;95336.78;;;-2.66
61595;BMP280;47397;48.194;11.632;2024-01-16T03:21:29;95336.13;;;-2.57
61595;BMP280;47397;48.194;11.632;2024-01-16T03:22:29;95335.31;;;-2.56
61595;BMP280;47397;48.194;11.632;2024-01-16T03:23:29;95336.03;;;-2.62
61595;BMP280;47397;48.194;11.632;2024-01-16T03:24:31;95332.69;;;-2.64
61595;BMP280;47397;48.194;11.632;2024-01-16T03:25:31;95340.25;;;-2.59
61595;BMP280;47397;48.194;11.632;2024-01-16T03:26:32;95341.84;;;-2.61
61595;BMP280;47397;48.194;11.632;2024-01-16T03:27:32;95338.63;;;-2.57
61595;BMP280;47397;48.194;11.632;2024-01-16T03:28:32;95336.09;;;-2.60
61595;BMP280;47397;48.194;11.632;2024-01-16T03:29:32;95334.34;;;-2.63
61595;BMP280;47397;48.194;11.632;2024-01-16T03:30:33;95344.28;;;-2.64
61595;BMP280;47397;48.194;11.632;2024-01-16T03:31:34;95346.75;;;-2.64
61595;BMP280;47397;48.194;11.632;2024-01-16T03:32:34;95345.25;;;-2.58
61595;BMP280;47397;48.194;11.632;2024-01-16T03:33:34;95350.09;;;-2.64
61595;BMP280;47397;48.194;11.632;2024-01-16T03:34:35;95345.75;;;-2.74
61595;BMP280;47397;48.194;11.632;2024-01-16T03:35:35;95347.44;;;-2.73
61595;BMP280;47397;48.194;11.632;2024-01-16T03:36:35;95351.44;;;-2.81
61595;BMP280;47397;48.194;11.632;2024-01-16T03:37:37;95352.47;;;-2.70
61595;BMP280;47397;48.194;11.632;2024-01-16T03:38:37;95349.25;;;-2.64
61595;BMP280;47397;48.194;11.632;2024-01-16T03:39:39;95353.34;;;-2.66
61595;BMP280;47397;48.194;11.632;2024-01-16T03:40:39;95348.38;;;-2.66
61595;BMP280;47397;48.194;11.632;2024-01-16T03:41:40;95341.75;;;-2.66
61595;BMP280;47397;48.194;11.632;2024-01-16T03:42:40;95345.06;;;-2.67
61595;BMP280;47397;48.194;11.632;2024-01-16T03:43:40;95344.25;;;-2.66
61595;BMP280;47397;48.194;11.632;2024-01-16T03:44:41;95345.88;;;-2.68
61595;BMP280;47397;48.194;11.632;2024-01-16T03:45:41;95347.50;;;-2.70
61595;BMP280;47397;48.194;11.632;2024-01-16T03:46:41;95348.06;;;-2.85
61595;BMP280;47397;48.194;11.632;2024-01-16T03:47:42;95339.91;;;-2.77
61595;BMP280;47397;48.194;11.632;2024-01-16T03:48:42;95338.28;;;-2.75
61595;BMP280;47397;48.194;11.632;2024-01-16T03:49:43;95337.50;;;-2.71
61595;BMP280;47397;48.194;11.632;2024-01-16T03:50:43;95343.25;;;-2.75
61595;BMP280;47397;48.194;11.632;2024-01-16T03:51:43;95334.97;;;-2.74
61595;BMP280;47397;48.194;11.632;2024-01-16T03:52:43;95334.91;;;-2.77
61595;BMP280;47397;48.194;11.632;2024-01-16T03:53:44;95331.72;;;-2.72
61595;BMP280;47397;48.194;11.632;2024-01-16T03:54:45;95338.94;;;-2.84
61595;BMP280;47397;48.194;11.632;2024-01-16T03:55:46;95333.13;;;-2.86
61595;BMP280;47397;48.194;11.632;2024-01-16T03:56:47;95332.41;;;-2.79
61595;BMP280;47397;48.194;11.632;2024-01-16T03:57:47;95334.09;;;-2.78
61595;BMP280;47397;48.194;11.632;2024-01-16T03:58:47;95331.69;;;-2.73
61595;BMP280;47397;48.194;11.632;2024-01-16T03:59:48;95336.63;;;-2.75
61595;BMP280;47397;48.194;11.632;2024-01-16T04:00:48;95338.25;;;-2.77
61595;BMP280;47397;48.194;11.632;2024-01-16T04:01:48;95332.44;;;-2.77
61595;BMP280;47397;48.194;11.632;2024-01-16T04:02:49;95337.34;;;-2.82
61595;BMP280;47397;48.194;11.632;2024-01-16T04:03:49;95338.94;;;-2.86
61595;BMP280;47397;48.194;11.632;2024-01-16T04:04:49;95333.13;;;-2.85
61595;BMP280;47397;48.194;11.632;2024-01-16T04:05:50;95337.94;;;-2.94
61595;BMP280;47397;48.194;11.632;2024-01-16T04:06:50;95338.84;;;-2.90
61595;BMP280;47397;48.194;11.632;2024-01-16T04:07:51;95338.88;;;-2.89
61595;BMP280;47397;48.194;11.632;2024-01-16T04:08:51;95341.13;;;-2.99
61595;BMP280;47397;48.194;11.632;2024-01-16T04:09:53;95335.50;;;-2.92
61595;BMP280;47397;48.194;11.632;2024-01-16T04:10:53;95342.88;;;-2.97
61595;BMP280;47397;48.194;11.632;2024-01-16T04:11:53;95342.72;;;-3.03
61595;BMP280;47397;48.194;11.632;2024-01-16T04:12:54;95338.56;;;-3.04
61595;BMP280;47397;48.194;11.632;2024-01-16T04:13:54;95337.75;;;-3.03
61595;BMP280;47397;48.194;11.632;2024-01-16T04:14:55;95335.34;;;-2.98
61595;BMP280;47397;48.194;11.632;2024-01-16T04:15:55;95344.47;;;-2.99
61595;BMP280;47397;48.194;11.632;2024-01-16T04:16:55;95351.34;;;-2.87
61595;BMP280;47397;48.194;11.632;2024-01-16T04:17:56;95349.78;;;-2.80
61595;BMP280;47397;48.194;11.632;2024-01-16T04:18:56;95352.22;;;-2.84
61595;BMP280;47397;48.194;11.632;2024-01-16T04:19:56;95353.13;;;-2.80
61595;BMP280;47397;48.194;11.632;2024-01-16T04:20:56;95345.69;;;-2.78
61595;BMP280;47397;48.194;11.632;2024-01-16T04:21:57;95346.59;;;-2.73
61595;BMP280;47397;48.194;11.632;2024-01-16T04:22:57;95341.53;;;-2.78
61595;BMP280;47397;48.194;11.632;2024-01-16T04:23:57;95339.84;;;-2.80
61595;BMP280;47397;48.194;11.632;2024-01-16T04:24:59;95343.97;;;-2.81
61595;BMP280;47397;48.194;11.632;2024-01-16T04:25:59;95346.25;;;-2.93
61595;BMP280;47397;48.194;11.632;2024-01-16T04:27:00;95351.28;;;-2.90
61595;BMP280;47397;48.194;11.632;2024-01-16T04:28:00;95349.75;;;-2.84
61595;BMP280;47397;48.194;11.632;2024-01-16T04:29:00;95346.44;;;-2.83
61595;BMP280;47397;48.194;11.632;2024-01-16T04:30:01;95348.09;;;-2.83
61595;BMP280;47397;48.194;11.632;2024-01-16T04:31:01;95343.06;;;-2.86
61595;BMP280;47397;48.194;11.632;2024-01-16T04:32:01;95340.69;;;-2.80
61595;BMP280;47397;48.194;11.632;2024-01-16T04:33:02;95340.63;;;-2.83
61595;BMP280;47397;48.194;11.632;2024-01-16T04:34:03;95338.94;;;-2.86
61595;BMP280;47397;48.194;11.632;2024-01-16T04:35:04;95338.84;;;-2.90
61595;BMP280;47397;48.194;11.632;2024-01-16T04:36:04;95338.88;;;-2.89
61595;BMP280;47397;48.194;11.632;2024-01-16T04:37:05;95337.09;;;-2.96
61595;BMP280;47397;48.194;11.632;2024-01-16T04:38:05;95333.88;;;-2.90
61595;BMP280;47397;48.194;11.632;2024-01-16T04:39:05;95338.94;;;-2.86
61595;BMP280;47397;48.194;11.632;2024-01-16T04:40:08;95332.16;;;-2.93
61595;BMP280;47397;48.194;11.632;2024-01-16T04:41:08;95338.75;;;-2.95
61595;BMP280;47397;48.194;11.632;2024-01-16T04:42:09;95330.53;;;-2.92
61595;BMP280;47397;48.194;11.632;2024-01-16T04:43:09;95331.34;;;-2.92
61595;BMP280;47397;48.194;11.632;2024-01-16T04:44:09;95333.09;;;-2.88
61595;BMP280;47397;48.194;11.632;2024-01-16T04:45:10;95338.97;;;-2.83
61595;BMP280;47397;48.194;11.632;2024-01-16T04:46:10;95332.34;;;-2.84
61595;BMP280;47397;48.194;11.632;2024-01-16T04:47:10;95328.88;;;-2.92
61595;BMP280;47397;48.194;11.632;2024-01-16T04:48:10;95328.97;;;-2.86
61595;BMP280;47397;48.194;11.632;2024-01-16T04:49:11;95322.31;;;-2.88
61595;BMP280;47397;48.194;11.632;2024-01-16T04:50:11;95325.50;;;-2.95
61595;BMP280;47397;48.194;11.632;2024-01-16T04:51:11;95326.22;;;-2.99
61595;BMP280;47397;48.194;11.632;2024-01-16T04:52:12;95319.66;;;-2.97
61595;BMP280;47397;48.194;11.632;2024-01-16T04:53:12;95324.66;;;-2.96
61595;BMP280;47397;48.194;11.632;2024-01-16T04:54:12;95327.94;;;-2.97
61595;BMP280;47397;48.194;11.632;2024-01-16T04:55:14;95319.69;;;-2.96
61595;BMP280;47397;48.194;11.632;2024-01-16T04:56:15;95329.38;;;-3.08
61595;BMP280;47397;48.194;11.632;2024-01-16T04:57:15;95323.56;;;-3.08
61595;BMP280;47397;48.194;11.632;2024-01-16T04:58:15;95327.84;;;-3.01
61595;BMP280;47397;48.194;11.632;2024-01-16T04:59:15;95321.38;;;-2.95
61595;BMP280;47397;48.194;11.632;2024-01-16T05:00:16;95327.16;;;-2.96
61595;BMP280;47397;48.194;11.632;2024-01-16T05:01:17;95322.19;;;-2.94
61595;BMP280;47397;48.194;11.632;2024-01-16T05:02:17;95320.66;;;-2.88
61595;BMP280;47397;48.194;11.632;2024-01-16T05:03:17;95321.34;;;-2.96
61595;BMP280;47397;48.194;11.632;2024-01-16T05:04:18;95320.34;;;-3.03
61595;BMP280;47397;48.194;11.632;2024-01-16T05:05:18;95321.28;;;-2.98
61595;BMP280;47397;48.194;11.632;2024-01-16T05:06:18;95321.06;;;-3.10
61595;BMP280;47397;48.194;11.632;2024-01-16T05:07:19;95322.16;;;-2.97
61595;BMP280;47397;48.194;11.632;2024-01-16T05:08:19;95322.03;;;-3.02
61595;BMP280;47397;48.194;11.632;2024-01-16T05:09:19;95321.34;;;-2.96
61595;BMP280;47397;48.194;11.632;2024-01-16T05:10:21;95327.03;;;-3.00
61595;BMP280;47397;48.194;11.632;2024-01-16T05:11:21;95328.72;;;-2.98
61595;BMP280;47397;48.194;11.632;2024-01-16T05:12:22;95325.34;;;-3.01
61595;BMP280;47397;48.194;11.632;2024-01-16T05:13:22;95334.47;;;-3.00
61595;BMP280;47397;48.194;11.632;2024-01-16T05:14:22;95332.94;;;-2.97
61595;BMP280;47397;48.194;11.632;2024-01-16T05:15:23;95332.13;;;-2.94
61595;BMP280;47397;48.194;11.632;2024-01-16T05:16:23;95334.59;;;-2.96
61595;BMP280;47397;48.194;11.632;2024-01-16T05:17:24;95328.78;;;-2.96
61595;BMP280;47397;48.194;11.632;2024-01-16T05:18:24;95326.38;;;-2.92
61595;BMP280;47397;48.194;11.632;2024-01-16T05:19:24;95331.06;;;-3.05
61595;BMP280;47397;48.194;11.632;2024-01-16T05:20:24;95333.56;;;-3.05
61595;BMP280;47397;48.194;11.632;2024-01-16T05:21:25;95329.63;;;-2.96
61595;BMP280;47397;48.194;11.632;2024-01-16T05:22:25;95327.13;;;-2.97
61595;BMP280;47397;48.194;11.632;2024-01-16T05:23:25;95333.69;;;-2.99
61595;BMP280;47397;48.194;11.632;2024-01-16T05:24:26;95328.78;;;-2.96
61595;BMP280;47397;48.194;11.632;2024-01-16T05:25:27;95336.84;;;-3.08
61595;BMP280;47397;48.194;11.632;2024-01-16T05:26:28;95332.81;;;-3.01
61595;BMP280;47397;48.194;11.632;2024-01-16T05:27:28;95340.19;;;-3.06
61595;BMP280;47397;48.194;11.632;2024-01-16T05:28:28;95332.94;;;-2.97
61595;BMP280;47397;48.194;11.632;2024-01-16T05:29:28;95333.69;;;-2.98
61595;BMP280;47397;48.194;11.632;2024-01-16T05:30:29;95338.63;;;-3.01
61595;BMP280;47397;48.194;11.632;2024-01-16T05:31:29;95333.69;;;-2.99
61595;BMP280;47397;48.194;11.632;2024-01-16T05:32:29;95341.78;;;-3.09
61595;BMP280;47397;48.194;11.632;2024-01-16T05:33:30;95334.31;;;-3.09
61595;BMP280;47397;48.194;11.632;2024-01-16T05:34:30;95337.66;;;-3.07
61595;BMP280;47397;48.194;11.632;2024-01-16T05:35:30;95326.97;;;-3.03
61595;BMP280;47397;48.194;11.632;2024-01-16T05:36:31;95331.84;;;-3.09
61595;BMP280;47397;48.194;11.632;2024-01-16T05:37:31;95331.13;;;-3.02
61595;BMP280;47397;48.194;11.632;2024-01-16T05:38:31;95328.66;;;-3.02
61595;BMP280;47397;48.194;11.632;2024-01-16T05:39:31;95323.59;;;-3.07
61595;BMP280;47397;48.194;11.632;2024-01-16T05:40:33;95331.97;;;-3.02
61595;BMP280;47397;48.194;11.632;2024-01-16T05:41:34;95324.53;;;-3.00
61595;BMP280;47397;48.194;11.632;2024-01-16T05:42:34;95333.59;;;-3.04
61595;BMP280;47397;48.194;11.632;2024-01-16T05:43:34;95333.50;;;-3.08